Time;durP1;ratioP1;P1;durP2;ratioP2;P2;SDS_P1;SDS_P2;PMS_P1;PMS_P2;Temp;Humidity;BMP_temperature;BMP_pressure;BME280_temperature;BME280_humidity;BME280_pressure;Samples;Min_cycle;Max_cycle;Signal;HPM_P1;HPM_P2
2023/03/31 04:59:53;;;;;;;;;4.00;4.00;;;;;;;;4955909;22;51059;-73
2023/03/31 05:02:24;;;;;;;;;4.25;3.25;;;;;;;;5053655;28;49788;-74
2023/03/31 05:04:50;;;;;;;;;8.75;6.50;;;;;;;;5050844;28;49845;-74
2023/03/31 05:07:16;;;;;;;;;2.50;2.50;;;;;;;;5063368;28;49877;-73
2023/03/31 05:09:41;;;;;;;;;13.00;7.50;;;;;;;;5031699;28;49839;-74
2023/03/31 05:12:06;;;;;;;;;6.25;4.25;;;;;;;;5060500;28;49691;-73
2023/03/31 05:14:31;;;;;;;;;2.75;2.00;;;;;;;;5054604;28;49735;-73
2023/03/31 05:16:57;;;;;;;;;6.50;6.50;;;;;;;;5060953;28;49792;-74
2023/03/31 05:19:23;;;;;;;;;10.50;8.00;;;;;;;;5050722;28;49856;-73
2023/03/31 05:21:48;;;;;;;;;6.00;3.50;;;;;;;;5062188;28;49660;-74
2023/03/31 05:24:13;;;;;;;;;8.50;5.50;;;;;;;;5056728;28;50360;-75
2023/03/31 05:26:39;;;;;;;;;9.75;4.25;;;;;;;;5063528;28;49887;-74
2023/03/31 05:29:05;;;;;;;;;4.00;3.50;;;;;;;;5048350;28;50139;-74
2023/03/31 05:31:30;;;;;;;;;11.25;5.00;;;;;;;;5055697;28;50013;-75
2023/03/31 05:33:55;;;;;;;;;5.25;4.00;;;;;;;;5055081;28;50449;-74
2023/03/31 05:36:22;;;;;;;;;9.25;6.00;;;;;;;;5053494;28;50128;-74
2023/03/31 05:38:47;;;;;;;;;11.00;5.50;;;;;;;;5063266;28;50111;-76
2023/03/31 05:41:12;;;;;;;;;3.75;3.00;;;;;;;;5056010;28;50090;-68
2023/03/31 05:43:38;;;;;;;;;4.00;4.00;;;;;;;;5047870;28;49914;-70
2023/03/31 05:46:04;;;;;;;;;7.75;4.00;;;;;;;;5055324;28;49886;-76
2023/03/31 05:48:29;;;;;;;;;10.25;5.25;;;;;;;;5058897;28;49980;-74
2023/03/31 05:50:57;;;;;;;;;5.00;3.25;;;;;;;;5031884;28;49975;-74
2023/03/31 05:53:23;;;;;;;;;5.00;3.00;;;;;;;;5063127;28;50991;-73
2023/03/31 05:55:48;;;;;;;;;9.25;3.50;;;;;;;;5055232;28;50071;-74
2023/03/31 05:58:13;;;;;;;;;12.50;5.75;;;;;;;;5055942;28;50154;-74
2023/03/31 06:00:38;;;;;;;;;8.75;6.50;;;;;;;;5051921;28;49949;-73
2023/03/31 06:03:06;;;;;;;;;8.00;5.50;;;;;;;;5065901;28;49862;-74
2023/03/31 06:05:31;;;;;;;;;11.25;4.75;;;;;;;;5051611;28;49792;-74
2023/03/31 06:07:56;;;;;;;;;5.25;3.50;;;;;;;;5043222;28;49992;-73
2023/03/31 06:10:22;;;;;;;;;7.50;4.50;;;;;;;;5060775;28;49736;-74
2023/03/31 06:12:47;;;;;;;;;6.50;3.25;;;;;;;;5055189;28;51153;-73
2023/03/31 06:15:12;;;;;;;;;5.25;3.50;;;;;;;;5061977;28;49791;-73
2023/03/31 06:17:37;;;;;;;;;5.75;3.75;;;;;;;;5052699;28;50053;-73
2023/03/31 06:20:04;;;;;;;;;14.50;6.25;;;;;;;;5050111;28;49962;-73
2023/03/31 06:22:29;;;;;;;;;8.75;3.00;;;;;;;;5049435;28;50480;-72
2023/03/31 06:24:55;;;;;;;;;4.25;3.00;;;;;;;;5048607;28;49764;-73
2023/03/31 06:27:20;;;;;;;;;9.25;4.50;;;;;;;;5050440;28;50152;-73
2023/03/31 06:29:45;;;;;;;;;4.50;2.75;;;;;;;;5052427;28;50012;-73
2023/03/31 06:32:10;;;;;;;;;4.00;3.25;;;;;;;;5050451;28;49761;-73
2023/03/31 06:34:36;;;;;;;;;6.25;4.50;;;;;;;;5034346;28;49689;-73
2023/03/31 06:37:01;;;;;;;;;8.25;4.00;;;;;;;;5051622;28;49882;-73
2023/03/31 06:39:27;;;;;;;;;7.75;5.25;;;;;;;;5036198;28;50443;-73
2023/03/31 06:41:52;;;;;;;;;6.00;4.00;;;;;;;;5048881;28;49965;-73
2023/03/31 06:44:18;;;;;;;;;1.75;1.75;;;;;;;;5043247;28;50076;-73
2023/03/31 06:46:43;;;;;;;;;4.50;2.75;;;;;;;;5052676;28;50340;-73
2023/03/31 06:49:08;;;;;;;;;7.75;6.25;;;;;;;;5053140;28;49769;-72
2023/03/31 06:51:33;;;;;;;;;4.00;3.00;;;;;;;;5061302;28;51059;-72
2023/03/31 06:53:59;;;;;;;;;4.25;3.25;;;;;;;;5057957;28;49727;-74
2023/03/31 06:56:24;;;;;;;;;6.00;3.00;;;;;;;;5053868;28;50094;-73
2023/03/31 06:58:49;;;;;;;;;7.00;3.75;;;;;;;;5054233;28;50030;-73
2023/03/31 07:01:14;;;;;;;;;8.75;5.25;;;;;;;;5061324;28;50844;-73
2023/03/31 07:03:39;;;;;;;;;12.75;7.25;;;;;;;;5059919;28;49729;-73
2023/03/31 07:06:05;;;;;;;;;5.25;2.00;;;;;;;;5054756;28;49757;-73
2023/03/31 07:08:30;;;;;;;;;7.50;5.25;;;;;;;;5054462;28;50133;-73
2023/03/31 07:10:56;;;;;;;;;7.25;5.25;;;;;;;;5054190;28;49849;-73
2023/03/31 07:13:22;;;;;;;;;3.00;3.00;;;;;;;;5058289;28;49581;-73
2023/03/31 07:15:47;;;;;;;;;1.25;1.25;;;;;;;;5054219;28;49720;-73
2023/03/31 07:18:14;;;;;;;;;10.25;5.75;;;;;;;;5054815;28;49788;-71
2023/03/31 07:20:40;;;;;;;;;6.50;3.00;;;;;;;;5060612;28;50962;-71
2023/03/31 07:23:07;;;;;;;;;11.00;3.50;;;;;;;;5056275;28;50027;-72
2023/03/31 07:25:33;;;;;;;;;4.00;2.00;;;;;;;;5055015;28;50074;-72
2023/03/31 07:27:58;;;;;;;;;4.00;3.75;;;;;;;;5057039;28;49935;-72
2023/03/31 07:30:23;;;;;;;;;8.00;5.00;;;;;;;;5052297;28;50263;-71
2023/03/31 07:32:49;;;;;;;;;5.25;4.00;;;;;;;;5051416;28;49724;-71
2023/03/31 07:35:15;;;;;;;;;4.00;2.25;;;;;;;;5049270;28;49937;-75
2023/03/31 07:37:43;;;;;;;;;6.00;2.75;;;;;;;;5050034;28;49990;-73
2023/03/31 07:40:09;;;;;;;;;6.00;2.75;;;;;;;;5050053;28;50299;-74
2023/03/31 07:42:35;;;;;;;;;4.25;2.50;;;;;;;;5051812;28;50045;-75
2023/03/31 07:45:00;;;;;;;;;7.25;4.25;;;;;;;;5033500;28;50240;-74
2023/03/31 07:47:26;;;;;;;;;3.25;2.25;;;;;;;;5054172;28;49988;-79
2023/03/31 07:49:51;;;;;;;;;3.25;2.75;;;;;;;;5061306;28;49882;-76
2023/03/31 07:52:18;;;;;;;;;3.75;2.75;;;;;;;;5049198;28;50389;-72
2023/03/31 07:54:43;;;;;;;;;2.25;2.00;;;;;;;;5051151;28;49772;-73
2023/03/31 07:57:09;;;;;;;;;4.25;3.75;;;;;;;;5054295;28;51043;-74
2023/03/31 07:59:34;;;;;;;;;3.25;1.00;;;;;;;;5058188;28;50068;-73
2023/03/31 08:02:00;;;;;;;;;6.50;2.50;;;;;;;;5050333;28;49732;-73
2023/03/31 08:04:25;;;;;;;;;2.25;2.25;;;;;;;;5063022;28;49751;-74
2023/03/31 08:06:51;;;;;;;;;3.00;0.50;;;;;;;;5057339;28;50045;-74
2023/03/31 08:09:17;;;;;;;;;2.75;2.75;;;;;;;;5056756;28;50837;-76
2023/03/31 08:11:43;;;;;;;;;7.00;4.00;;;;;;;;5042623;28;50006;-75
2023/03/31 08:14:08;;;;;;;;;3.25;3.00;;;;;;;;5039285;28;49862;-75
2023/03/31 08:16:33;;;;;;;;;6.25;3.50;;;;;;;;5059130;28;49757;-75
2023/03/31 08:18:58;;;;;;;;;4.25;3.25;;;;;;;;5051017;28;49988;-74
2023/03/31 08:21:23;;;;;;;;;6.75;3.75;;;;;;;;5059827;28;49671;-75
2023/03/31 08:23:49;;;;;;;;;5.00;2.00;;;;;;;;5053023;28;50241;-75
2023/03/31 08:26:18;;;;;;;;;1.75;0.00;;;;;;;;5060867;28;49727;-75
2023/03/31 08:28:43;;;;;;;;;7.75;2.25;;;;;;;;5058658;28;50498;-73
2023/03/31 08:31:09;;;;;;;;;3.25;1.50;;;;;;;;5058897;28;49807;-75
2023/03/31 08:33:34;;;;;;;;;5.50;3.75;;;;;;;;5035242;28;49995;-77
2023/03/31 08:36:01;;;;;;;;;4.00;2.75;;;;;;;;5053589;28;50238;-76
2023/03/31 08:38:26;;;;;;;;;6.50;4.00;;;;;;;;5049622;28;50969;-77
2023/03/31 08:40:57;;;;;;;;;2.75;2.75;;;;;;;;5053436;28;49768;-77
2023/03/31 08:43:26;;;;;;;;;4.00;4.00;;;;;;;;5039688;28;49670;-74
2023/03/31 08:45:52;;;;;;;;;3.25;2.25;;;;;;;;5034646;28;50046;-74
2023/03/31 08:48:21;;;;;;;;;2.75;1.00;;;;;;;;5056372;28;50120;-77
2023/03/31 08:50:52;;;;;;;;;2.50;1.50;;;;;;;;5059367;28;49765;-78
2023/03/31 08:53:25;;;;;;;;;3.25;1.25;;;;;;;;5050632;28;49716;-75
2023/03/31 08:55:53;;;;;;;;;2.75;1.75;;;;;;;;5055002;28;50066;-76
2023/03/31 08:58:22;;;;;;;;;3.75;1.50;;;;;;;;5060781;28;51388;-75
2023/03/31 09:00:53;;;;;;;;;2.00;2.00;;;;;;;;5053913;28;50144;-74
2023/03/31 09:03:27;;;;;;;;;1.75;1.75;;;;;;;;5035874;28;50061;-81
2023/03/31 09:05:59;;;;;;;;;5.50;3.00;;;;;;;;5048785;28;49813;-75
2023/03/31 09:08:24;;;;;;;;;2.00;2.00;;;;;;;;5044710;28;50862;-75
2023/03/31 09:11:11;;;;;;;;;3.75;2.75;;;;;;;;5047978;28;50101;-75
2023/03/31 09:13:58;;;;;;;;;1.50;1.25;;;;;;;;5047940;28;50091;-75
2023/03/31 09:16:27;;;;;;;;;1.75;1.00;;;;;;;;5048517;28;49803;-74
2023/03/31 09:18:56;;;;;;;;;2.50;1.00;;;;;;;;5050053;28;50775;-76
2023/03/31 09:21:25;;;;;;;;;2.00;1.50;;;;;;;;5049291;28;49832;-75
2023/03/31 09:23:56;;;;;;;;;6.50;4.00;;;;;;;;5059932;28;50151;-76
2023/03/31 09:26:25;;;;;;;;;5.75;0.75;;;;;;;;5065361;28;50426;-73
2023/03/31 09:28:51;;;;;;;;;4.00;3.00;;;;;;;;5061311;28;49741;-74
2023/03/31 09:31:18;;;;;;;;;3.25;2.75;;;;;;;;5060148;28;49676;-76
2023/03/31 09:33:45;;;;;;;;;3.75;3.00;;;;;;;;5025673;28;49755;-74
2023/03/31 09:36:17;;;;;;;;;7.25;4.25;;;;;;;;5053093;28;50181;-75
2023/03/31 09:38:43;;;;;;;;;3.00;1.50;;;;;;;;5058884;28;50622;-76
2023/03/31 09:41:08;;;;;;;;;3.75;2.75;;;;;;;;5051682;28;50052;-74
2023/03/31 09:43:40;;;;;;;;;4.00;1.50;;;;;;;;5065810;28;50036;-74
2023/03/31 09:46:25;;;;;;;;;2.00;1.00;;;;;;;;5054744;28;49666;-74
2023/03/31 09:48:56;;;;;;;;;2.75;1.75;;;;;;;;5043022;28;51038;-73
2023/03/31 09:51:29;;;;;;;;;3.00;3.00;;;;;;;;5030783;28;49804;-73
2023/03/31 09:53:57;;;;;;;;;3.75;2.00;;;;;;;;5051822;28;49729;-74
2023/03/31 09:56:54;;;;;;;;;2.50;1.00;;;;;;;;5033717;28;50089;-74
2023/03/31 09:59:21;;;;;;;;;1.50;1.50;;;;;;;;5014294;28;50079;-73
2023/03/31 10:01:49;;;;;;;;;1.00;1.00;;;;;;;;5050120;28;49822;-74
2023/03/31 10:04:22;;;;;;;;;4.00;0.00;;;;;;;;5055649;28;50152;-73
2023/03/31 10:06:48;;;;;;;;;1.00;1.00;;;;;;;;5054004;28;49828;-75
2023/03/31 10:09:13;;;;;;;;;2.25;1.00;;;;;;;;5063395;28;50819;-74
2023/03/31 10:11:39;;;;;;;;;3.00;3.00;;;;;;;;5061064;28;49661;-74
2023/03/31 10:14:13;;;;;;;;;1.50;1.50;;;;;;;;5037097;28;49679;-74
2023/03/31 10:16:47;;;;;;;;;2.00;1.75;;;;;;;;5060984;28;49810;-74
2023/03/31 10:19:24;;;;;;;;;4.75;1.50;;;;;;;;5055585;28;50175;-74
2023/03/31 10:22:13;;;;;;;;;0.50;0.50;;;;;;;;5062040;28;49811;-73
2023/03/31 10:24:42;;;;;;;;;0.75;0.75;;;;;;;;5050299;28;50179;-73
2023/03/31 10:27:13;;;;;;;;;2.00;1.00;;;;;;;;5049053;28;50117;-73
2023/03/31 10:29:38;;;;;;;;;1.75;1.50;;;;;;;;5047802;28;51380;-74
2023/03/31 10:32:08;;;;;;;;;2.00;2.00;;;;;;;;5032186;28;50126;-74
2023/03/31 10:34:35;;;;;;;;;3.00;2.00;;;;;;;;5051536;28;49777;-74
2023/03/31 10:37:03;;;;;;;;;3.00;2.00;;;;;;;;5034922;28;50277;-73
2023/03/31 10:39:30;;;;;;;;;5.75;1.25;;;;;;;;5051202;28;50040;-74
2023/03/31 10:41:56;;;;;;;;;1.00;1.00;;;;;;;;5058020;28;49941;-74
2023/03/31 10:44:30;;;;;;;;;1.50;1.00;;;;;;;;5053004;28;50199;-75
2023/03/31 10:47:02;;;;;;;;;1.50;0.75;;;;;;;;5055241;28;49949;-74
2023/03/31 10:49:27;;;;;;;;;4.00;3.50;;;;;;;;5051053;28;50562;-73
2023/03/31 10:51:53;;;;;;;;;1.50;0.00;;;;;;;;5056321;28;49825;-74
2023/03/31 10:54:19;;;;;;;;;2.00;2.00;;;;;;;;5053459;28;50045;-73
2023/03/31 10:56:50;;;;;;;;;2.00;2.00;;;;;;;;5059236;28;49618;-74
2023/03/31 10:59:50;;;;;;;;;4.75;1.75;;;;;;;;5052082;28;50124;-74
2023/03/31 11:02:38;;;;;;;;;2.75;1.50;;;;;;;;5024368;28;49687;-74
2023/03/31 11:05:09;;;;;;;;;2.00;0.00;;;;;;;;5071411;28;49796;-74
2023/03/31 11:07:44;;;;;;;;;1.25;1.25;;;;;;;;5065222;28;49940;-74
2023/03/31 11:10:28;;;;;;;;;1.50;1.50;;;;;;;;5044457;28;51341;-73
2023/03/31 11:12:53;;;;;;;;;2.00;0.50;;;;;;;;5055622;28;49671;-73
2023/03/31 11:15:34;;;;;;;;;1.80;1.00;;;;;;;;5055487;28;50056;-74
2023/03/31 11:17:59;;;;;;;;;1.00;1.00;;;;;;;;5058453;28;49669;-73
2023/03/31 11:20:32;;;;;;;;;1.00;1.00;;;;;;;;5058513;28;51884;-74
2023/03/31 11:23:05;;;;;;;;;1.00;1.00;;;;;;;;5059693;28;49761;-74
2023/03/31 11:25:43;;;;;;;;;1.00;1.00;;;;;;;;5057543;28;49721;-73
2023/03/31 11:28:23;;;;;;;;;2.00;2.00;;;;;;;;5062538;28;49797;-73
2023/03/31 11:30:48;;;;;;;;;1.25;1.00;;;;;;;;5056791;28;50702;-74
2023/03/31 11:33:16;;;;;;;;;2.20;0.20;;;;;;;;5057962;28;49855;-73
2023/03/31 11:35:42;;;;;;;;;2.00;0.75;;;;;;;;5059392;28;49771;-74
2023/03/31 11:38:17;;;;;;;;;2.00;1.00;;;;;;;;5063522;28;49892;-74
2023/03/31 11:41:01;;;;;;;;;2.00;1.00;;;;;;;;5064845;28;50526;-74
2023/03/31 11:43:32;;;;;;;;;1.00;1.00;;;;;;;;5051967;28;49764;-74
2023/03/31 11:46:01;;;;;;;;;1.25;1.25;;;;;;;;5053747;28;49925;-74
2023/03/31 11:48:35;;;;;;;;;1.25;1.25;;;;;;;;5053407;28;49637;-74
2023/03/31 11:51:01;;;;;;;;;1.25;1.00;;;;;;;;5050496;28;49795;-73
2023/03/31 11:53:31;;;;;;;;;2.00;0.00;;;;;;;;5054812;28;50694;-74
2023/03/31 11:55:57;;;;;;;;;1.75;1.00;;;;;;;;5053117;28;49768;-73
2023/03/31 11:58:34;;;;;;;;;1.00;1.00;;;;;;;;5053155;28;49852;-74
2023/03/31 12:01:06;;;;;;;;;1.00;0.75;;;;;;;;5050409;28;50149;-74
2023/03/31 12:03:32;;;;;;;;;2.00;0.75;;;;;;;;5054083;28;49739;-74
2023/03/31 12:06:01;;;;;;;;;2.50;1.00;;;;;;;;5064192;28;50692;-74
2023/03/31 12:08:43;;;;;;;;;1.00;0.00;;;;;;;;5054990;28;49963;-75
2023/03/31 12:11:31;;;;;;;;;1.00;0.50;;;;;;;;5056909;28;51570;-81
2023/03/31 12:13:56;;;;;;;;;0.00;0.00;;;;;;;;5033360;28;49990;-84
2023/03/31 12:16:24;;;;;;;;;1.60;0.00;;;;;;;;5058717;28;49830;-79
2023/03/31 12:19:01;;;;;;;;;0.00;0.00;;;;;;;;5055776;28;49780;-82
2023/03/31 12:21:28;;;;;;;;;1.00;1.00;;;;;;;;5053484;28;50556;-77
2023/03/31 12:23:54;;;;;;;;;2.00;0.75;;;;;;;;5055081;28;49797;-76
2023/03/31 12:26:29;;;;;;;;;1.50;0.00;;;;;;;;5055520;28;50145;-78
2023/03/31 12:28:57;;;;;;;;;2.25;1.00;;;;;;;;5055855;28;50408;-76
2023/03/31 12:31:24;;;;;;;;;0.25;0.25;;;;;;;;5063451;28;50191;-75
2023/03/31 12:34:01;;;;;;;;;1.00;1.00;;;;;;;;5058961;28;49803;-78
2023/03/31 12:36:39;;;;;;;;;2.00;1.00;;;;;;;;5054176;28;49772;-78
2023/03/31 12:39:17;;;;;;;;;1.25;0.50;;;;;;;;5057533;28;50092;-78
2023/03/31 12:42:01;;;;;;;;;0.75;0.75;;;;;;;;5051000;28;50517;-78
2023/03/31 12:44:32;;;;;;;;;2.00;0.25;;;;;;;;5053981;28;51087;-75
2023/03/31 12:47:06;;;;;;;;;2.25;2.25;;;;;;;;5061920;28;49680;-77
2023/03/31 12:49:50;;;;;;;;;1.00;0.00;;;;;;;;5054726;28;49972;-76
2023/03/31 12:52:29;;;;;;;;;0.00;0.00;;;;;;;;5058347;28;49797;-76
2023/03/31 12:55:15;;;;;;;;;1.00;1.00;;;;;;;;5058286;28;49753;-77
2023/03/31 12:57:41;;;;;;;;;0.00;0.00;;;;;;;;5056755;28;49729;-76
2023/03/31 13:00:35;;;;;;;;;3.50;3.00;;;;;;;;5063530;28;49715;-77
2023/03/31 13:03:23;;;;;;;;;1.00;1.00;;;;;;;;5040162;28;50950;-76
2023/03/31 13:05:49;;;;;;;;;0.00;0.00;;;;;;;;5058140;28;50005;-76
2023/03/31 13:08:34;;;;;;;;;0.00;0.00;;;;;;;;5055771;28;50223;-76
2023/03/31 13:10:59;;;;;;;;;0.00;0.00;;;;;;;;5051767;28;49690;-76
2023/03/31 13:13:25;;;;;;;;;2.00;0.00;;;;;;;;5050771;28;50706;-75
2023/03/31 13:15:52;;;;;;;;;0.00;0.00;;;;;;;;5057438;28;49807;-75
2023/03/31 13:18:19;;;;;;;;;1.25;1.00;;;;;;;;5044799;28;49768;-75
2023/03/31 13:20:45;;;;;;;;;0.00;0.00;;;;;;;;5052118;28;50062;-75
2023/03/31 13:23:10;;;;;;;;;1.25;0.00;;;;;;;;5052012;28;49807;-75
2023/03/31 13:25:47;;;;;;;;;0.40;0.40;;;;;;;;5050597;28;49950;-76
2023/03/31 13:28:14;;;;;;;;;2.00;0.75;;;;;;;;5046517;28;49634;-76
2023/03/31 13:30:40;;;;;;;;;0.00;0.00;;;;;;;;5055151;28;50103;-77
2023/03/31 13:33:24;;;;;;;;;0.75;0.75;;;;;;;;5052412;28;50529;-76
2023/03/31 13:36:09;;;;;;;;;0.75;0.75;;;;;;;;5051508;28;50050;-77
2023/03/31 13:38:40;;;;;;;;;2.00;2.00;;;;;;;;5051278;28;49976;-76
2023/03/31 13:41:23;;;;;;;;;0.00;0.00;;;;;;;;5051778;28;50353;-77
2023/03/31 13:44:06;;;;;;;;;0.25;0.25;;;;;;;;5056902;28;50896;-75
2023/03/31 13:46:41;;;;;;;;;1.00;0.75;;;;;;;;5053493;28;49859;-75
2023/03/31 13:49:25;;;;;;;;;0.00;0.00;;;;;;;;5051039;28;49751;-76
2023/03/31 13:51:53;;;;;;;;;1.00;1.00;;;;;;;;5057962;28;49675;-76
2023/03/31 13:54:21;;;;;;;;;1.50;0.50;;;;;;;;5055445;28;51122;-75
2023/03/31 13:56:57;;;;;;;;;1.75;0.00;;;;;;;;5040705;28;49842;-76
2023/03/31 13:59:34;;;;;;;;;1.75;1.00;;;;;;;;5055235;28;50001;-76
2023/03/31 14:02:15;;;;;;;;;1.00;1.00;;;;;;;;5049959;28;49725;-76
2023/03/31 14:04:55;;;;;;;;;0.50;0.50;;;;;;;;5040567;28;50130;-76
2023/03/31 14:07:25;;;;;;;;;1.00;1.00;;;;;;;;5051004;28;49861;-76
2023/03/31 14:09:52;;;;;;;;;0.00;0.00;;;;;;;;5053613;28;49782;-76
2023/03/31 14:12:19;;;;;;;;;1.00;0.00;;;;;;;;5055855;28;49997;-75
2023/03/31 14:14:44;;;;;;;;;0.00;0.00;;;;;;;;5058934;28;49902;-76
2023/03/31 14:17:10;;;;;;;;;0.00;0.00;;;;;;;;5055823;28;49959;-76
2023/03/31 14:19:43;;;;;;;;;1.75;0.00;;;;;;;;5051707;28;49737;-77
2023/03/31 14:22:08;;;;;;;;;0.00;0.00;;;;;;;;5056205;28;49677;-76
2023/03/31 14:24:46;;;;;;;;;0.00;0.00;;;;;;;;5049402;28;51931;-76
2023/03/31 14:27:17;;;;;;;;;0.50;0.50;;;;;;;;5031350;28;49712;-76
2023/03/31 14:29:50;;;;;;;;;0.00;0.00;;;;;;;;5051629;28;49703;-76
2023/03/31 14:32:22;;;;;;;;;0.00;0.00;;;;;;;;5060402;28;50001;-76
2023/03/31 14:35:16;;;;;;;;;1.00;1.00;;;;;;;;5036051;28;51144;-76
2023/03/31 14:37:42;;;;;;;;;0.00;0.00;;;;;;;;5025438;28;49920;-76
2023/03/31 14:40:12;;;;;;;;;0.75;0.75;;;;;;;;5052141;28;49758;-77
2023/03/31 14:42:38;;;;;;;;;0.00;0.00;;;;;;;;5065983;28;49978;-75
2023/03/31 14:45:08;;;;;;;;;0.75;0.75;;;;;;;;5057229;28;50573;-76
2023/03/31 14:47:33;;;;;;;;;0.00;0.00;;;;;;;;5051732;28;49858;-75
2023/03/31 14:50:00;;;;;;;;;1.50;0.00;;;;;;;;5061565;28;50146;-76
2023/03/31 14:52:28;;;;;;;;;1.00;1.00;;;;;;;;5054168;28;50020;-76
2023/03/31 14:54:53;;;;;;;;;0.25;0.25;;;;;;;;5054049;28;51114;-75
2023/03/31 14:57:20;;;;;;;;;0.00;0.00;;;;;;;;5053528;28;49930;-77
2023/03/31 14:59:46;;;;;;;;;0.00;0.00;;;;;;;;5052217;28;50215;-77
2023/03/31 15:02:15;;;;;;;;;0.00;0.00;;;;;;;;5054654;28;49869;-78
2023/03/31 15:04:43;;;;;;;;;1.25;0.50;;;;;;;;5056187;28;50101;-78
2023/03/31 15:07:09;;;;;;;;;1.00;0.00;;;;;;;;5058780;28;49713;-80
2023/03/31 15:09:37;;;;;;;;;0.50;0.50;;;;;;;;5052130;28;49765;-77
2023/03/31 15:12:05;;;;;;;;;0.50;0.50;;;;;;;;5055435;28;49658;-76
2023/03/31 15:14:33;;;;;;;;;0.50;0.00;;;;;;;;5053393;28;50137;-75
2023/03/31 15:16:59;;;;;;;;;0.00;0.00;;;;;;;;5050504;28;50228;-75
2023/03/31 15:19:26;;;;;;;;;0.00;0.00;;;;;;;;5054078;28;49756;-75
2023/03/31 15:22:00;;;;;;;;;0.00;0.00;;;;;;;;5063749;28;49730;-76
2023/03/31 15:24:26;;;;;;;;;1.00;1.00;;;;;;;;5053515;28;49745;-78
2023/03/31 15:27:11;;;;;;;;;0.25;0.00;;;;;;;;5052814;28;50225;-79
2023/03/31 15:29:36;;;;;;;;;0.25;0.00;;;;;;;;5055581;28;49791;-77
2023/03/31 15:32:03;;;;;;;;;0.00;0.00;;;;;;;;5050635;28;49974;-76
2023/03/31 15:34:32;;;;;;;;;1.00;1.00;;;;;;;;5059860;28;51008;-76
2023/03/31 15:36:58;;;;;;;;;0.25;0.00;;;;;;;;5056386;28;49660;-76
2023/03/31 15:39:28;;;;;;;;;0.00;0.00;;;;;;;;5054967;28;49836;-76
2023/03/31 15:41:55;;;;;;;;;1.00;0.00;;;;;;;;5055620;28;49658;-77
2023/03/31 15:44:46;;;;;;;;;0.00;0.00;;;;;;;;5059978;28;49964;-77
2023/03/31 15:47:17;;;;;;;;;1.00;1.00;;;;;;;;5053231;28;49785;-77
2023/03/31 15:49:47;;;;;;;;;1.00;1.00;;;;;;;;5044589;28;49816;-77
2023/03/31 15:52:30;;;;;;;;;0.00;0.00;;;;;;;;5051676;28;49847;-77
2023/03/31 15:54:56;;;;;;;;;1.00;0.00;;;;;;;;5061082;28;49918;-77
2023/03/31 15:57:29;;;;;;;;;0.25;0.25;;;;;;;;5056004;28;49780;-76
2023/03/31 15:59:56;;;;;;;;;0.00;0.00;;;;;;;;5060331;28;49668;-77
2023/03/31 16:02:23;;;;;;;;;0.25;0.25;;;;;;;;5065825;28;49763;-78
2023/03/31 16:04:49;;;;;;;;;2.00;1.00;;;;;;;;5061200;28;50902;-77
2023/03/31 16:07:21;;;;;;;;;0.50;0.50;;;;;;;;5037026;28;49828;-78
2023/03/31 16:09:54;;;;;;;;;1.25;1.25;;;;;;;;5051825;28;50051;-78
2023/03/31 16:12:22;;;;;;;;;0.00;0.00;;;;;;;;5053854;28;49934;-78
2023/03/31 16:14:55;;;;;;;;;1.00;0.00;;;;;;;;5064289;28;50453;-78
2023/03/31 16:17:27;;;;;;;;;2.00;1.00;;;;;;;;5057537;28;50117;-77
2023/03/31 16:19:58;;;;;;;;;0.00;0.00;;;;;;;;5058346;28;50236;-81
2023/03/31 16:22:30;;;;;;;;;0.00;0.00;;;;;;;;5058920;28;49696;-76
2023/03/31 16:24:55;;;;;;;;;0.75;0.50;;;;;;;;5061744;28;50999;-76
2023/03/31 16:27:21;;;;;;;;;1.25;0.50;;;;;;;;5038523;28;49854;-76
2023/03/31 16:29:46;;;;;;;;;0.00;0.00;;;;;;;;5046484;28;50042;-75
2023/03/31 16:32:12;;;;;;;;;0.75;0.50;;;;;;;;5050548;28;50030;-74
2023/03/31 16:34:56;;;;;;;;;0.75;0.75;;;;;;;;5049571;28;51278;-75
2023/03/31 16:37:21;;;;;;;;;0.25;0.25;;;;;;;;5048981;28;49862;-75
2023/03/31 16:39:46;;;;;;;;;0.75;0.00;;;;;;;;5057886;28;50047;-75
2023/03/31 16:42:12;;;;;;;;;2.75;0.25;;;;;;;;5057729;28;50085;-75
2023/03/31 16:44:37;;;;;;;;;1.25;0.00;;;;;;;;5052402;28;50826;-73
2023/03/31 16:47:02;;;;;;;;;0.00;0.00;;;;;;;;5063545;28;50104;-74
2023/03/31 16:49:27;;;;;;;;;0.00;0.00;;;;;;;;5050660;28;49721;-73
2023/03/31 16:51:52;;;;;;;;;1.50;1.00;;;;;;;;5060486;28;50076;-75
2023/03/31 16:54:18;;;;;;;;;1.00;0.75;;;;;;;;5041694;28;52109;-73
2023/03/31 16:56:43;;;;;;;;;1.00;1.00;;;;;;;;5056965;28;49701;-73
2023/03/31 16:59:08;;;;;;;;;0.00;0.00;;;;;;;;5054725;28;50072;-73
2023/03/31 17:01:33;;;;;;;;;0.00;0.00;;;;;;;;5036704;28;50321;-73
2023/03/31 17:03:59;;;;;;;;;1.00;0.25;;;;;;;;5054092;28;50166;-73
2023/03/31 17:06:24;;;;;;;;;1.75;1.75;;;;;;;;5051849;28;50204;-73
2023/03/31 17:08:49;;;;;;;;;2.25;1.25;;;;;;;;5048301;28;49729;-73
2023/03/31 17:11:14;;;;;;;;;1.00;1.00;;;;;;;;5061662;28;49645;-73
2023/03/31 17:13:41;;;;;;;;;2.50;1.50;;;;;;;;5049696;28;50534;-73
2023/03/31 17:16:06;;;;;;;;;1.00;1.00;;;;;;;;5052233;28;49738;-72
2023/03/31 17:18:31;;;;;;;;;1.00;1.00;;;;;;;;5050685;28;49777;-73
2023/03/31 17:21:07;;;;;;;;;1.00;1.00;;;;;;;;5050053;28;49919;-73
2023/03/31 17:23:33;;;;;;;;;1.00;1.00;;;;;;;;5048898;28;49907;-73
2023/03/31 17:25:59;;;;;;;;;1.00;1.00;;;;;;;;5033408;28;50699;-73
2023/03/31 17:28:24;;;;;;;;;0.25;0.25;;;;;;;;5057391;28;50196;-74
2023/03/31 17:30:49;;;;;;;;;1.25;1.25;;;;;;;;5050126;28;50183;-73
2023/03/31 17:33:15;;;;;;;;;1.75;1.00;;;;;;;;5037329;28;49983;-74
2023/03/31 17:35:41;;;;;;;;;0.00;0.00;;;;;;;;5054038;28;50111;-74
2023/03/31 17:38:08;;;;;;;;;0.75;0.75;;;;;;;;5054683;28;49844;-74
2023/03/31 17:40:33;;;;;;;;;0.50;0.25;;;;;;;;5043492;28;49867;-74
2023/03/31 17:43:00;;;;;;;;;1.00;1.00;;;;;;;;5054882;28;50147;-75
2023/03/31 17:45:25;;;;;;;;;0.00;0.00;;;;;;;;5056661;28;49752;-74
2023/03/31 17:47:51;;;;;;;;;3.50;2.00;;;;;;;;5035597;28;50014;-74
2023/03/31 17:50:16;;;;;;;;;1.00;1.00;;;;;;;;5051980;28;50029;-74
2023/03/31 17:52:41;;;;;;;;;0.75;0.75;;;;;;;;5053620;28;50821;-74
2023/03/31 17:55:07;;;;;;;;;2.00;1.00;;;;;;;;5065415;28;50012;-74
2023/03/31 17:57:33;;;;;;;;;0.00;0.00;;;;;;;;5051622;28;49611;-73
2023/03/31 17:59:58;;;;;;;;;2.00;0.00;;;;;;;;5057657;28;49683;-74
2023/03/31 18:02:24;;;;;;;;;0.00;0.00;;;;;;;;5044016;28;50709;-74
2023/03/31 18:04:49;;;;;;;;;3.00;1.00;;;;;;;;5057652;28;50386;-76
2023/03/31 18:07:17;;;;;;;;;1.00;1.00;;;;;;;;5055684;28;49841;-75
2023/03/31 18:09:42;;;;;;;;;1.00;1.00;;;;;;;;5037732;28;49695;-76
2023/03/31 18:12:08;;;;;;;;;1.75;1.75;;;;;;;;5063556;28;50612;-74
2023/03/31 18:14:33;;;;;;;;;0.50;0.50;;;;;;;;5041994;28;50032;-73
2023/03/31 18:16:59;;;;;;;;;2.00;1.00;;;;;;;;5055328;28;50164;-77
2023/03/31 18:19:24;;;;;;;;;2.00;0.00;;;;;;;;5037601;28;50611;-75
2023/03/31 18:21:50;;;;;;;;;0.75;0.75;;;;;;;;5051485;28;49790;-80
2023/03/31 18:24:17;;;;;;;;;1.00;1.00;;;;;;;;5055780;28;49797;-75
2023/03/31 18:26:42;;;;;;;;;0.75;0.00;;;;;;;;5050203;28;50029;-79
2023/03/31 18:29:07;;;;;;;;;0.25;0.00;;;;;;;;5050231;28;49720;-74
2023/03/31 18:31:33;;;;;;;;;1.00;0.25;;;;;;;;5059073;28;50746;-74
2023/03/31 18:33:58;;;;;;;;;3.75;2.00;;;;;;;;5031567;28;49812;-77
2023/03/31 18:36:23;;;;;;;;;2.25;1.00;;;;;;;;5050223;28;49629;-75
2023/03/31 18:38:49;;;;;;;;;4.00;2.25;;;;;;;;5052460;28;49994;-76
2023/03/31 18:41:16;;;;;;;;;1.25;1.25;;;;;;;;5034062;28;51936;-78
2023/03/31 18:43:42;;;;;;;;;1.00;1.00;;;;;;;;5053100;28;49951;-74
2023/03/31 18:46:07;;;;;;;;;2.00;1.25;;;;;;;;5050123;28;50085;-74
2023/03/31 18:48:33;;;;;;;;;1.50;1.50;;;;;;;;5055097;28;49742;-72
2023/03/31 18:50:59;;;;;;;;;1.00;0.00;;;;;;;;5061738;28;50439;-76
2023/03/31 18:53:24;;;;;;;;;2.00;1.00;;;;;;;;5054203;28;50051;-76
2023/03/31 18:55:54;;;;;;;;;0.25;0.25;;;;;;;;5033766;28;49997;-74
2023/03/31 18:58:19;;;;;;;;;0.75;0.00;;;;;;;;5054902;28;49752;-76
2023/03/31 19:00:44;;;;;;;;;0.75;0.00;;;;;;;;5061537;28;50885;-76
2023/03/31 19:03:10;;;;;;;;;1.00;1.00;;;;;;;;5061769;28;49677;-74
2023/03/31 19:05:36;;;;;;;;;1.00;0.00;;;;;;;;5053768;28;49823;-81
2023/03/31 19:08:01;;;;;;;;;0.00;0.00;;;;;;;;5052265;28;49762;-74
2023/03/31 19:10:27;;;;;;;;;1.50;1.50;;;;;;;;5060631;28;50142;-76
2023/03/31 19:12:53;;;;;;;;;1.00;1.00;;;;;;;;5031599;28;50299;-73
2023/03/31 19:15:18;;;;;;;;;0.75;0.00;;;;;;;;5036053;28;50064;-73
2023/03/31 19:17:43;;;;;;;;;1.00;1.00;;;;;;;;5058483;28;50070;-74
2023/03/31 19:20:15;;;;;;;;;0.25;0.00;;;;;;;;5050400;28;49755;-75
2023/03/31 19:22:42;;;;;;;;;0.75;0.75;;;;;;;;5040295;28;49835;-74
2023/03/31 19:25:07;;;;;;;;;0.50;0.50;;;;;;;;5057495;28;50089;-74
2023/03/31 19:27:33;;;;;;;;;1.00;1.00;;;;;;;;5060365;28;49932;-76
2023/03/31 19:29:58;;;;;;;;;2.00;0.25;;;;;;;;5053436;28;51110;-74
2023/03/31 19:32:23;;;;;;;;;1.25;1.25;;;;;;;;5051632;28;49744;-73
2023/03/31 19:34:49;;;;;;;;;1.25;0.00;;;;;;;;5055422;28;50172;-73
2023/03/31 19:37:14;;;;;;;;;1.00;1.00;;;;;;;;5058223;28;49741;-73
2023/03/31 19:39:39;;;;;;;;;0.25;0.00;;;;;;;;5066595;28;50033;-75
2023/03/31 19:42:05;;;;;;;;;1.00;0.50;;;;;;;;5054286;28;49888;-74
2023/03/31 19:44:30;;;;;;;;;1.50;0.50;;;;;;;;5056317;28;49640;-73
2023/03/31 19:46:57;;;;;;;;;0.50;0.50;;;;;;;;5052109;28;49973;-73
2023/03/31 19:49:22;;;;;;;;;0.75;0.75;;;;;;;;5051586;28;50758;-73
2023/03/31 19:51:47;;;;;;;;;2.00;1.00;;;;;;;;5051809;28;49969;-73